sensor_id;sensor_type;location;lat;lon;timestamp;P1;durP1;ratioP1;P2;durP2;ratioP2
66429;SDS011;53242;51.694;10.006;2022-09-21T00:00:18;4.45;;;1.92;;
66429;SDS011;53242;51.694;10.006;2022-09-21T00:02:40;3.42;;;1.92;;
66429;SDS011;53242;51.694;10.006;2022-09-21T00:05:03;3.88;;;1.25;;
66429;SDS011;53242;51.694;10.006;2022-09-21T00:07:27;4.07;;;1.40;;
66429;SDS011;53242;51.694;10.006;2022-09-21T00:09:49;2.13;;;1.15;;
66429;SDS011;53242;51.694;10.006;2022-09-21T00:12:12;4.88;;;1.50;;
66429;SDS011;53242;51.694;10.006;2022-09-21T00:14:34;4.30;;;1.40;;
66429;SDS011;53242;51.694;10.006;2022-09-21T00:16:57;2.90;;;1.30;;
66429;SDS011;53242;51.694;10.006;2022-09-21T00:19:19;3.95;;;1.40;;
66429;SDS011;53242;51.694;10.006;2022-09-21T00:21:42;4.70;;;1.40;;
66429;SDS011;53242;51.694;10.006;2022-09-21T00:24:05;3.17;;;1.35;;
66429;SDS011;53242;51.694;10.006;2022-09-21T00:26:28;3.83;;;1.40;;
66429;SDS011;53242;51.694;10.006;2022-09-21T00:28:58;3.90;;;1.60;;
66429;SDS011;53242;51.694;10.006;2022-09-21T00:31:22;4.20;;;1.40;;
66429;SDS011;53242;51.694;10.006;2022-09-21T00:33:45;3.78;;;1.25;;
66429;SDS011;53242;51.694;10.006;2022-09-21T00:36:09;3.08;;;1.60;;
66429;SDS011;53242;51.694;10.006;2022-09-21T00:38:34;2.30;;;1.23;;
66429;SDS011;53242;51.694;10.006;2022-09-21T00:40:57;4.78;;;1.60;;
66429;SDS011;53242;51.694;10.006;2022-09-21T00:43:20;3.25;;;1.40;;
66429;SDS011;53242;51.694;10.006;2022-09-21T00:45:43;4.25;;;1.50;;
66429;SDS011;53242;51.694;10.006;2022-09-21T00:48:07;6.22;;;1.73;;
66429;SDS011;53242;51.694;10.006;2022-09-21T00:50:30;3.63;;;1.55;;
66429;SDS011;53242;51.694;10.006;2022-09-21T00:52:55;4.35;;;1.80;;
66429;SDS011;53242;51.694;10.006;2022-09-21T00:55:29;4.18;;;1.88;;
66429;SDS011;53242;51.694;10.006;2022-09-21T00:58:01;4.90;;;2.13;;
66429;SDS011;53242;51.694;10.006;2022-09-21T01:00:30;4.68;;;1.80;;
66429;SDS011;53242;51.694;10.006;2022-09-21T01:02:53;7.03;;;2.20;;
66429;SDS011;53242;51.694;10.006;2022-09-21T01:05:22;9.32;;;2.30;;
66429;SDS011;53242;51.694;10.006;2022-09-21T01:07:46;4.97;;;2.10;;
66429;SDS011;53242;51.694;10.006;2022-09-21T01:10:11;6.88;;;2.10;;
66429;SDS011;53242;51.694;10.006;2022-09-21T01:26:09;5.40;;;2.35;;
66429;SDS011;53242;51.694;10.006;2022-09-21T01:34:59;4.82;;;2.05;;
66429;SDS011;53242;51.694;10.006;2022-09-21T01:37:22;8.43;;;2.67;;
66429;SDS011;53242;51.694;10.006;2022-09-21T01:39:49;7.25;;;2.22;;
66429;SDS011;53242;51.694;10.006;2022-09-21T01:42:16;5.82;;;2.40;;
66429;SDS011;53242;51.694;10.006;2022-09-21T01:44:42;6.60;;;2.70;;
66429;SDS011;53242;51.694;10.006;2022-09-21T01:49:34;6.53;;;2.22;;
66429;SDS011;53242;51.694;10.006;2022-09-21T01:52:01;6.10;;;1.90;;
66429;SDS011;53242;51.694;10.006;2022-09-21T01:54:38;7.00;;;2.10;;
66429;SDS011;53242;51.694;10.006;2022-09-21T01:57:09;5.53;;;2.17;;
66429;SDS011;53242;51.694;10.006;2022-09-21T01:59:39;6.00;;;2.22;;
66429;SDS011;53242;51.694;10.006;2022-09-21T02:02:12;6.68;;;2.28;;
66429;SDS011;53242;51.694;10.006;2022-09-21T02:04:40;6.00;;;2.50;;
66429;SDS011;53242;51.694;10.006;2022-09-21T02:07:03;6.35;;;2.25;;
66429;SDS011;53242;51.694;10.006;2022-09-21T02:09:25;9.43;;;3.03;;
66429;SDS011;53242;51.694;10.006;2022-09-21T02:11:48;8.57;;;3.05;;
66429;SDS011;53242;51.694;10.006;2022-09-21T02:14:12;7.10;;;2.97;;
66429;SDS011;53242;51.694;10.006;2022-09-21T02:16:43;7.72;;;2.95;;
66429;SDS011;53242;51.694;10.006;2022-09-21T02:20:00;7.90;;;2.90;;
66429;SDS011;53242;51.694;10.006;2022-09-21T02:22:05;28.35;;;4.72;;
66429;SDS011;53242;51.694;10.006;2022-09-21T02:24:37;6.55;;;2.47;;
66429;SDS011;53242;51.694;10.006;2022-09-21T02:43:02;14.95;;;3.35;;
66429;SDS011;53242;51.694;10.006;2022-09-21T02:45:32;20.75;;;5.35;;
66429;SDS011;53242;51.694;10.006;2022-09-21T02:48:19;17.33;;;4.40;;
66429;SDS011;53242;51.694;10.006;2022-09-21T02:50:55;12.25;;;3.90;;
66429;SDS011;53242;51.694;10.006;2022-09-21T02:53:22;10.57;;;3.45;;
66429;SDS011;53242;51.694;10.006;2022-09-21T02:55:48;8.65;;;2.83;;
66429;SDS011;53242;51.694;10.006;2022-09-21T03:00:37;5.63;;;2.40;;
66429;SDS011;53242;51.694;10.006;2022-09-21T03:03:03;8.55;;;2.15;;
66429;SDS011;53242;51.694;10.006;2022-09-21T03:05:38;8.07;;;2.33;;
66429;SDS011;53242;51.694;10.006;2022-09-21T03:08:01;6.18;;;2.30;;
66429;SDS011;53242;51.694;10.006;2022-09-21T03:10:23;6.35;;;2.10;;
66429;SDS011;53242;51.694;10.006;2022-09-21T03:12:46;5.45;;;2.13;;
66429;SDS011;53242;51.694;10.006;2022-09-21T03:15:09;5.65;;;2.15;;
66429;SDS011;53242;51.694;10.006;2022-09-21T03:17:31;6.07;;;2.38;;
66429;SDS011;53242;51.694;10.006;2022-09-21T03:19:54;11.32;;;3.15;;
66429;SDS011;53242;51.694;10.006;2022-09-21T03:22:16;8.02;;;2.90;;
66429;SDS011;53242;51.694;10.006;2022-09-21T03:24:38;9.90;;;3.25;;
66429;SDS011;53242;51.694;10.006;2022-09-21T03:27:07;9.38;;;3.17;;
66429;SDS011;53242;51.694;10.006;2022-09-21T03:29:30;18.73;;;4.40;;
66429;SDS011;53242;51.694;10.006;2022-09-21T03:31:52;9.93;;;3.25;;
66429;SDS011;53242;51.694;10.006;2022-09-21T03:34:17;8.93;;;3.40;;
66429;SDS011;53242;51.694;10.006;2022-09-21T03:36:39;9.30;;;3.35;;
66429;SDS011;53242;51.694;10.006;2022-09-21T03:39:02;14.95;;;4.05;;
66429;SDS011;53242;51.694;10.006;2022-09-21T03:41:25;17.83;;;4.72;;
66429;SDS011;53242;51.694;10.006;2022-09-21T03:43:47;13.50;;;4.30;;
66429;SDS011;53242;51.694;10.006;2022-09-21T03:46:09;14.88;;;3.83;;
66429;SDS011;53242;51.694;10.006;2022-09-21T03:48:32;12.50;;;3.50;;
66429;SDS011;53242;51.694;10.006;2022-09-21T03:50:55;13.40;;;4.32;;
66429;SDS011;53242;51.694;10.006;2022-09-21T03:53:18;12.38;;;4.20;;
66429;SDS011;53242;51.694;10.006;2022-09-21T03:55:40;11.48;;;3.80;;
66429;SDS011;53242;51.694;10.006;2022-09-21T03:58:03;13.75;;;4.32;;
66429;SDS011;53242;51.694;10.006;2022-09-21T04:00:26;12.30;;;4.25;;
66429;SDS011;53242;51.694;10.006;2022-09-21T04:02:48;17.17;;;4.20;;
66429;SDS011;53242;51.694;10.006;2022-09-21T04:05:12;25.92;;;5.30;;
66429;SDS011;53242;51.694;10.006;2022-09-21T04:07:38;13.50;;;4.35;;
66429;SDS011;53242;51.694;10.006;2022-09-21T04:10:05;13.05;;;4.35;;
66429;SDS011;53242;51.694;10.006;2022-09-21T04:12:29;15.70;;;3.80;;
66429;SDS011;53242;51.694;10.006;2022-09-21T04:14:52;14.43;;;3.53;;
66429;SDS011;53242;51.694;10.006;2022-09-21T04:17:14;14.73;;;3.53;;
66429;SDS011;53242;51.694;10.006;2022-09-21T04:19:37;11.20;;;3.33;;
66429;SDS011;53242;51.694;10.006;2022-09-21T04:21:59;9.30;;;3.10;;
66429;SDS011;53242;51.694;10.006;2022-09-21T04:24:22;11.00;;;3.70;;
66429;SDS011;53242;51.694;10.006;2022-09-21T04:26:44;10.63;;;3.15;;
66429;SDS011;53242;51.694;10.006;2022-09-21T04:29:08;10.55;;;3.38;;
66429;SDS011;53242;51.694;10.006;2022-09-21T04:34:17;9.85;;;3.33;;
66429;SDS011;53242;51.694;10.006;2022-09-21T04:39:56;11.90;;;3.40;;
66429;SDS011;53242;51.694;10.006;2022-09-21T04:42:44;8.55;;;3.08;;
66429;SDS011;53242;51.694;10.006;2022-09-21T04:45:12;10.82;;;3.20;;
66429;SDS011;53242;51.694;10.006;2022-09-21T04:47:34;21.17;;;4.68;;
66429;SDS011;53242;51.694;10.006;2022-09-21T04:49:57;13.48;;;3.72;;
66429;SDS011;53242;51.694;10.006;2022-09-21T04:52:19;23.02;;;4.63;;
66429;SDS011;53242;51.694;10.006;2022-09-21T04:54:42;13.23;;;5.20;;
66429;SDS011;53242;51.694;10.006;2022-09-21T04:57:04;17.15;;;3.90;;
66429;SDS011;53242;51.694;10.006;2022-09-21T04:59:26;16.60;;;4.75;;
66429;SDS011;53242;51.694;10.006;2022-09-21T05:01:49;43.85;;;8.50;;
66429;SDS011;53242;51.694;10.006;2022-09-21T05:04:11;17.02;;;3.95;;
66429;SDS011;53242;51.694;10.006;2022-09-21T05:06:34;16.35;;;5.07;;
66429;SDS011;53242;51.694;10.006;2022-09-21T05:08:56;27.13;;;4.22;;
66429;SDS011;53242;51.694;10.006;2022-09-21T05:11:37;15.93;;;3.42;;
66429;SDS011;53242;51.694;10.006;2022-09-21T05:14:00;9.10;;;3.05;;
66429;SDS011;53242;51.694;10.006;2022-09-21T05:16:22;24.08;;;5.45;;
66429;SDS011;53242;51.694;10.006;2022-09-21T05:18:45;15.48;;;4.45;;
66429;SDS011;53242;51.694;10.006;2022-09-21T05:21:08;12.40;;;3.90;;
66429;SDS011;53242;51.694;10.006;2022-09-21T05:23:32;12.88;;;3.85;;
66429;SDS011;53242;51.694;10.006;2022-09-21T05:25:55;12.93;;;3.13;;
66429;SDS011;53242;51.694;10.006;2022-09-21T05:28:18;13.32;;;3.03;;
66429;SDS011;53242;51.694;10.006;2022-09-21T05:30:42;20.52;;;3.83;;
66429;SDS011;53242;51.694;10.006;2022-09-21T05:33:07;19.67;;;2.88;;
66429;SDS011;53242;51.694;10.006;2022-09-21T05:35:37;8.68;;;2.53;;
66429;SDS011;53242;51.694;10.006;2022-09-21T05:38:21;6.55;;;2.40;;
66429;SDS011;53242;51.694;10.006;2022-09-21T05:40:44;22.65;;;4.72;;
66429;SDS011;53242;51.694;10.006;2022-09-21T05:43:11;13.80;;;3.50;;
66429;SDS011;53242;51.694;10.006;2022-09-21T05:45:34;9.77;;;3.28;;
66429;SDS011;53242;51.694;10.006;2022-09-21T05:48:22;11.32;;;3.70;;
66429;SDS011;53242;51.694;10.006;2022-09-21T05:50:58;23.75;;;4.40;;
66429;SDS011;53242;51.694;10.006;2022-09-21T05:53:33;11.18;;;2.92;;
66429;SDS011;53242;51.694;10.006;2022-09-21T05:56:04;12.65;;;3.38;;
66429;SDS011;53242;51.694;10.006;2022-09-21T06:04:17;8.63;;;3.00;;
66429;SDS011;53242;51.694;10.006;2022-09-21T06:06:39;12.10;;;3.20;;
66429;SDS011;53242;51.694;10.006;2022-09-21T06:09:01;9.90;;;3.22;;
66429;SDS011;53242;51.694;10.006;2022-09-21T06:11:24;15.05;;;3.05;;
66429;SDS011;53242;51.694;10.006;2022-09-21T06:13:46;10.32;;;2.92;;
66429;SDS011;53242;51.694;10.006;2022-09-21T06:16:09;9.18;;;2.30;;
66429;SDS011;53242;51.694;10.006;2022-09-21T06:18:35;45.95;;;4.00;;
66429;SDS011;53242;51.694;10.006;2022-09-21T06:21:01;11.70;;;2.75;;
66429;SDS011;53242;51.694;10.006;2022-09-21T06:23:23;16.67;;;3.28;;
66429;SDS011;53242;51.694;10.006;2022-09-21T06:25:49;9.45;;;2.72;;
66429;SDS011;53242;51.694;10.006;2022-09-21T06:28:15;14.07;;;2.80;;
66429;SDS011;53242;51.694;10.006;2022-09-21T06:30:38;13.20;;;2.60;;
66429;SDS011;53242;51.694;10.006;2022-09-21T06:33:03;12.98;;;2.88;;
66429;SDS011;53242;51.694;10.006;2022-09-21T06:35:27;9.50;;;2.30;;
66429;SDS011;53242;51.694;10.006;2022-09-21T06:40:18;8.20;;;2.60;;
66429;SDS011;53242;51.694;10.006;2022-09-21T06:42:40;12.48;;;2.63;;
66429;SDS011;53242;51.694;10.006;2022-09-21T06:45:02;10.43;;;2.40;;
66429;SDS011;53242;51.694;10.006;2022-09-21T06:47:25;8.15;;;2.10;;
66429;SDS011;53242;51.694;10.006;2022-09-21T06:49:47;10.90;;;2.90;;
66429;SDS011;53242;51.694;10.006;2022-09-21T06:52:10;8.48;;;2.85;;
66429;SDS011;53242;51.694;10.006;2022-09-21T06:54:32;10.05;;;2.60;;
66429;SDS011;53242;51.694;10.006;2022-09-21T06:56:55;15.85;;;2.45;;
66429;SDS011;53242;51.694;10.006;2022-09-21T06:59:17;7.43;;;2.30;;
66429;SDS011;53242;51.694;10.006;2022-09-21T07:01:40;34.75;;;3.65;;
66429;SDS011;53242;51.694;10.006;2022-09-21T07:04:02;9.77;;;2.75;;
66429;SDS011;53242;51.694;10.006;2022-09-21T07:06:25;14.32;;;2.45;;
66429;SDS011;53242;51.694;10.006;2022-09-21T07:08:50;10.05;;;2.17;;
66429;SDS011;53242;51.694;10.006;2022-09-21T07:11:13;10.43;;;2.70;;
66429;SDS011;53242;51.694;10.006;2022-09-21T07:13:36;8.48;;;2.25;;
66429;SDS011;53242;51.694;10.006;2022-09-21T07:16:01;11.80;;;2.58;;
66429;SDS011;53242;51.694;10.006;2022-09-21T07:18:26;11.73;;;2.40;;
66429;SDS011;53242;51.694;10.006;2022-09-21T07:20:49;9.05;;;2.30;;
66429;SDS011;53242;51.694;10.006;2022-09-21T07:23:12;6.80;;;2.20;;
66429;SDS011;53242;51.694;10.006;2022-09-21T07:25:39;8.13;;;2.13;;
66429;SDS011;53242;51.694;10.006;2022-09-21T07:28:02;5.85;;;2.10;;
66429;SDS011;53242;51.694;10.006;2022-09-21T07:30:24;7.70;;;2.20;;
66429;SDS011;53242;51.694;10.006;2022-09-21T07:32:48;23.92;;;2.83;;
66429;SDS011;53242;51.694;10.006;2022-09-21T07:35:11;6.20;;;2.00;;
66429;SDS011;53242;51.694;10.006;2022-09-21T07:37:33;8.88;;;1.95;;
66429;SDS011;53242;51.694;10.006;2022-09-21T07:39:56;7.75;;;1.90;;
66429;SDS011;53242;51.694;10.006;2022-09-21T07:42:19;8.43;;;2.00;;
66429;SDS011;53242;51.694;10.006;2022-09-21T07:44:43;6.85;;;1.80;;
66429;SDS011;53242;51.694;10.006;2022-09-21T07:47:06;6.18;;;1.95;;
66429;SDS011;53242;51.694;10.006;2022-09-21T07:49:28;5.68;;;2.00;;
66429;SDS011;53242;51.694;10.006;2022-09-21T07:51:51;7.22;;;2.45;;
66429;SDS011;53242;51.694;10.006;2022-09-21T07:54:13;7.40;;;2.40;;
66429;SDS011;53242;51.694;10.006;2022-09-21T07:56:38;8.02;;;2.72;;
66429;SDS011;53242;51.694;10.006;2022-09-21T07:59:01;7.70;;;2.60;;
66429;SDS011;53242;51.694;10.006;2022-09-21T08:01:29;10.40;;;2.78;;
66429;SDS011;53242;51.694;10.006;2022-09-21T08:03:53;11.05;;;2.60;;
66429;SDS011;53242;51.694;10.006;2022-09-21T08:06:18;9.35;;;2.60;;
66429;SDS011;53242;51.694;10.006;2022-09-21T08:08:41;11.48;;;2.83;;
66429;SDS011;53242;51.694;10.006;2022-09-21T08:11:04;6.82;;;2.22;;
66429;SDS011;53242;51.694;10.006;2022-09-21T08:13:27;7.47;;;2.47;;
66429;SDS011;53242;51.694;10.006;2022-09-21T08:15:56;16.23;;;3.03;;
66429;SDS011;53242;51.694;10.006;2022-09-21T08:18:19;13.00;;;2.72;;
66429;SDS011;53242;51.694;10.006;2022-09-21T08:20:41;35.88;;;4.72;;
66429;SDS011;53242;51.694;10.006;2022-09-21T08:23:04;15.63;;;3.67;;
66429;SDS011;53242;51.694;10.006;2022-09-21T08:25:27;8.20;;;3.08;;
66429;SDS011;53242;51.694;10.006;2022-09-21T08:27:49;9.13;;;3.00;;
66429;SDS011;53242;51.694;10.006;2022-09-21T08:30:12;8.55;;;3.13;;
66429;SDS011;53242;51.694;10.006;2022-09-21T08:32:34;12.05;;;3.22;;
66429;SDS011;53242;51.694;10.006;2022-09-21T08:34:57;10.85;;;3.42;;
66429;SDS011;53242;51.694;10.006;2022-09-21T08:37:20;8.38;;;3.13;;
66429;SDS011;53242;51.694;10.006;2022-09-21T08:39:43;9.02;;;2.85;;
66429;SDS011;53242;51.694;10.006;2022-09-21T08:42:28;11.50;;;3.72;;
66429;SDS011;53242;51.694;10.006;2022-09-21T08:45:13;9.00;;;3.28;;
66429;SDS011;53242;51.694;10.006;2022-09-21T08:47:46;9.38;;;3.22;;
66429;SDS011;53242;51.694;10.006;2022-09-21T08:52:50;10.77;;;3.28;;
66429;SDS011;53242;51.694;10.006;2022-09-21T08:55:18;11.77;;;3.63;;
66429;SDS011;53242;51.694;10.006;2022-09-21T08:57:41;14.60;;;3.25;;
66429;SDS011;53242;51.694;10.006;2022-09-21T09:00:06;10.52;;;3.63;;
66429;SDS011;53242;51.694;10.006;2022-09-21T09:02:40;13.18;;;3.95;;
66429;SDS011;53242;51.694;10.006;2022-09-21T09:07:46;12.10;;;3.90;;
66429;SDS011;53242;51.694;10.006;2022-09-21T09:10:32;10.20;;;3.97;;
66429;SDS011;53242;51.694;10.006;2022-09-21T09:13:04;11.20;;;4.00;;
66429;SDS011;53242;51.694;10.006;2022-09-21T09:15:44;9.82;;;4.07;;
66429;SDS011;53242;51.694;10.006;2022-09-21T09:21:02;11.82;;;4.93;;
66429;SDS011;53242;51.694;10.006;2022-09-21T09:23:31;12.07;;;3.90;;
66429;SDS011;53242;51.694;10.006;2022-09-21T09:26:01;10.13;;;4.30;;
66429;SDS011;53242;51.694;10.006;2022-09-21T09:31:24;11.43;;;4.80;;
66429;SDS011;53242;51.694;10.006;2022-09-21T09:34:12;12.75;;;4.75;;
66429;SDS011;53242;51.694;10.006;2022-09-21T09:36:33;13.20;;;5.00;;
66429;SDS011;53242;51.694;10.006;2022-09-21T09:39:01;14.85;;;5.90;;
66429;SDS011;53242;51.694;10.006;2022-09-21T09:44:30;13.55;;;4.90;;
66429;SDS011;53242;51.694;10.006;2022-09-21T09:46:59;12.40;;;5.15;;
66429;SDS011;53242;51.694;10.006;2022-09-21T09:49:54;12.43;;;5.15;;
66429;SDS011;53242;51.694;10.006;2022-09-21T09:52:27;13.75;;;5.53;;
66429;SDS011;53242;51.694;10.006;2022-09-21T09:54:51;11.57;;;4.90;;
66429;SDS011;53242;51.694;10.006;2022-09-21T09:57:18;13.50;;;5.07;;
66429;SDS011;53242;51.694;10.006;2022-09-21T09:59:54;13.43;;;4.68;;
66429;SDS011;53242;51.694;10.006;2022-09-21T10:02:23;11.80;;;4.90;;
66429;SDS011;53242;51.694;10.006;2022-09-21T10:07:19;10.85;;;4.85;;
66429;SDS011;53242;51.694;10.006;2022-09-21T10:09:41;10.15;;;4.07;;
66429;SDS011;53242;51.694;10.006;2022-09-21T10:12:23;12.10;;;4.93;;
66429;SDS011;53242;51.694;10.006;2022-09-21T10:14:49;10.68;;;4.80;;
66429;SDS011;53242;51.694;10.006;2022-09-21T10:17:14;14.60;;;4.63;;
66429;SDS011;53242;51.694;10.006;2022-09-21T10:19:39;12.30;;;5.03;;
66429;SDS011;53242;51.694;10.006;2022-09-21T10:22:02;12.38;;;4.47;;
66429;SDS011;53242;51.694;10.006;2022-09-21T10:27:10;12.45;;;4.60;;
66429;SDS011;53242;51.694;10.006;2022-09-21T10:29:40;13.65;;;4.85;;
66429;SDS011;53242;51.694;10.006;2022-09-21T10:32:07;10.93;;;4.93;;
66429;SDS011;53242;51.694;10.006;2022-09-21T10:34:58;12.32;;;4.68;;
66429;SDS011;53242;51.694;10.006;2022-09-21T10:37:30;11.20;;;4.43;;
66429;SDS011;53242;51.694;10.006;2022-09-21T10:39:58;11.73;;;4.35;;
66429;SDS011;53242;51.694;10.006;2022-09-21T10:42:20;12.75;;;4.55;;
66429;SDS011;53242;51.694;10.006;2022-09-21T10:45:02;14.73;;;4.82;;
66429;SDS011;53242;51.694;10.006;2022-09-21T10:52:40;14.50;;;3.88;;
66429;SDS011;53242;51.694;10.006;2022-09-21T10:55:04;11.77;;;3.78;;
66429;SDS011;53242;51.694;10.006;2022-09-21T10:57:29;11.77;;;3.90;;
66429;SDS011;53242;51.694;10.006;2022-09-21T10:59:54;12.18;;;3.53;;
66429;SDS011;53242;51.694;10.006;2022-09-21T11:02:34;18.13;;;5.57;;
66429;SDS011;53242;51.694;10.006;2022-09-21T11:05:00;10.95;;;4.05;;
66429;SDS011;53242;51.694;10.006;2022-09-21T11:07:31;10.20;;;3.58;;
66429;SDS011;53242;51.694;10.006;2022-09-21T11:10:15;11.93;;;4.25;;
66429;SDS011;53242;51.694;10.006;2022-09-21T11:20:33;11.25;;;2.13;;
66429;SDS011;53242;51.694;10.006;2022-09-21T11:28:32;6.68;;;1.77;;
66429;SDS011;53242;51.694;10.006;2022-09-21T11:34:14;7.28;;;1.95;;
66429;SDS011;53242;51.694;10.006;2022-09-21T11:44:53;4.57;;;1.63;;
66429;SDS011;53242;51.694;10.006;2022-09-21T11:47:37;6.18;;;1.33;;
66429;SDS011;53242;51.694;10.006;2022-09-21T12:00:49;2.20;;;0.82;;
66429;SDS011;53242;51.694;10.006;2022-09-21T12:11:28;4.28;;;1.20;;
66429;SDS011;53242;51.694;10.006;2022-09-21T12:14:08;5.25;;;0.75;;
66429;SDS011;53242;51.694;10.006;2022-09-21T12:22:34;3.05;;;0.68;;
66429;SDS011;53242;51.694;10.006;2022-09-21T12:27:36;4.18;;;0.98;;
66429;SDS011;53242;51.694;10.006;2022-09-21T12:30:02;3.88;;;0.90;;
66429;SDS011;53242;51.694;10.006;2022-09-21T12:32:48;6.55;;;0.90;;
66429;SDS011;53242;51.694;10.006;2022-09-21T12:35:34;2.63;;;0.88;;
66429;SDS011;53242;51.694;10.006;2022-09-21T12:38:10;2.95;;;0.93;;
66429;SDS011;53242;51.694;10.006;2022-09-21T12:40:39;2.85;;;1.00;;
66429;SDS011;53242;51.694;10.006;2022-09-21T12:46:01;3.33;;;0.88;;
66429;SDS011;53242;51.694;10.006;2022-09-21T12:48:33;5.35;;;1.13;;
66429;SDS011;53242;51.694;10.006;2022-09-21T12:53:45;3.40;;;0.80;;
66429;SDS011;53242;51.694;10.006;2022-09-21T13:02:04;3.17;;;0.73;;
66429;SDS011;53242;51.694;10.006;2022-09-21T13:07:39;4.78;;;1.20;;
66429;SDS011;53242;51.694;10.006;2022-09-21T13:12:53;3.63;;;0.70;;
66429;SDS011;53242;51.694;10.006;2022-09-21T13:18:06;2.70;;;0.73;;
66429;SDS011;53242;51.694;10.006;2022-09-21T13:20:39;5.00;;;0.80;;
66429;SDS011;53242;51.694;10.006;2022-09-21T13:23:02;2.45;;;0.90;;
66429;SDS011;53242;51.694;10.006;2022-09-21T13:25:25;2.58;;;0.77;;
66429;SDS011;53242;51.694;10.006;2022-09-21T13:28:01;3.45;;;0.68;;
66429;SDS011;53242;51.694;10.006;2022-09-21T13:30:30;1.80;;;0.50;;
66429;SDS011;53242;51.694;10.006;2022-09-21T13:32:53;4.30;;;0.80;;
66429;SDS011;53242;51.694;10.006;2022-09-21T13:43:46;3.65;;;0.75;;
66429;SDS011;53242;51.694;10.006;2022-09-21T13:48:57;5.38;;;1.08;;
66429;SDS011;53242;51.694;10.006;2022-09-21T13:51:23;5.55;;;0.80;;
66429;SDS011;53242;51.694;10.006;2022-09-21T13:53:46;4.03;;;0.68;;
66429;SDS011;53242;51.694;10.006;2022-09-21T13:56:18;3.58;;;0.52;;
66429;SDS011;53242;51.694;10.006;2022-09-21T13:58:46;1.70;;;0.60;;
66429;SDS011;53242;51.694;10.006;2022-09-21T14:01:23;3.05;;;0.70;;
66429;SDS011;53242;51.694;10.006;2022-09-21T14:03:53;2.25;;;0.47;;
66429;SDS011;53242;51.694;10.006;2022-09-21T14:06:22;2.65;;;0.70;;
66429;SDS011;53242;51.694;10.006;2022-09-21T14:11:20;3.85;;;0.60;;
66429;SDS011;53242;51.694;10.006;2022-09-21T14:14:00;3.83;;;0.80;;
66429;SDS011;53242;51.694;10.006;2022-09-21T14:21:38;4.15;;;0.95;;
66429;SDS011;53242;51.694;10.006;2022-09-21T14:24:20;2.53;;;0.90;;
66429;SDS011;53242;51.694;10.006;2022-09-21T14:26:58;1.55;;;0.68;;
66429;SDS011;53242;51.694;10.006;2022-09-21T14:29:27;4.28;;;1.30;;
66429;SDS011;53242;51.694;10.006;2022-09-21T14:31:58;2.55;;;0.68;;
66429;SDS011;53242;51.694;10.006;2022-09-21T14:34:29;4.55;;;0.88;;
66429;SDS011;53242;51.694;10.006;2022-09-21T14:36:56;2.50;;;0.82;;
66429;SDS011;53242;51.694;10.006;2022-09-21T14:39:24;4.57;;;0.90;;
66429;SDS011;53242;51.694;10.006;2022-09-21T14:41:52;4.85;;;0.98;;
66429;SDS011;53242;51.694;10.006;2022-09-21T14:44:21;3.67;;;0.60;;
66429;SDS011;53242;51.694;10.006;2022-09-21T14:47:02;2.35;;;0.70;;
66429;SDS011;53242;51.694;10.006;2022-09-21T14:49:38;2.63;;;0.65;;
66429;SDS011;53242;51.694;10.006;2022-09-21T14:54:57;4.93;;;0.82;;
66429;SDS011;53242;51.694;10.006;2022-09-21T15:00:21;4.70;;;1.10;;
66429;SDS011;53242;51.694;10.006;2022-09-21T15:05:58;3.42;;;0.70;;
66429;SDS011;53242;51.694;10.006;2022-09-21T15:08:55;3.75;;;0.75;;
66429;SDS011;53242;51.694;10.006;2022-09-21T15:12:00;2.80;;;0.60;;
66429;SDS011;53242;51.694;10.006;2022-09-21T15:16:53;2.58;;;0.70;;
66429;SDS011;53242;51.694;10.006;2022-09-21T15:21:52;1.65;;;0.80;;
66429;SDS011;53242;51.694;10.006;2022-09-21T15:24:20;5.05;;;1.30;;
66429;SDS011;53242;51.694;10.006;2022-09-21T15:26:47;3.63;;;0.65;;
66429;SDS011;53242;51.694;10.006;2022-09-21T15:31:46;2.28;;;0.55;;
66429;SDS011;53242;51.694;10.006;2022-09-21T15:34:09;2.47;;;0.70;;
66429;SDS011;53242;51.694;10.006;2022-09-21T15:36:35;3.15;;;1.10;;
66429;SDS011;53242;51.694;10.006;2022-09-21T15:39:00;4.22;;;0.60;;
66429;SDS011;53242;51.694;10.006;2022-09-21T15:41:42;2.92;;;0.60;;
66429;SDS011;53242;51.694;10.006;2022-09-21T15:46:39;1.85;;;0.70;;
66429;SDS011;53242;51.694;10.006;2022-09-21T15:49:04;3.22;;;0.80;;
66429;SDS011;53242;51.694;10.006;2022-09-21T15:51:28;3.35;;;0.52;;
66429;SDS011;53242;51.694;10.006;2022-09-21T15:54:06;7.55;;;0.90;;
66429;SDS011;53242;51.694;10.006;2022-09-21T15:56:30;4.72;;;1.10;;
66429;SDS011;53242;51.694;10.006;2022-09-21T15:59:01;2.78;;;0.77;;
66429;SDS011;53242;51.694;10.006;2022-09-21T16:01:29;1.45;;;0.65;;
66429;SDS011;53242;51.694;10.006;2022-09-21T16:04:04;3.38;;;0.82;;
66429;SDS011;53242;51.694;10.006;2022-09-21T16:06:34;7.07;;;0.90;;
66429;SDS011;53242;51.694;10.006;2022-09-21T16:08:58;2.75;;;0.80;;
66429;SDS011;53242;51.694;10.006;2022-09-21T16:11:57;2.35;;;0.70;;
66429;SDS011;53242;51.694;10.006;2022-09-21T16:14:20;3.22;;;0.90;;
66429;SDS011;53242;51.694;10.006;2022-09-21T16:19:41;2.65;;;0.60;;
66429;SDS011;53242;51.694;10.006;2022-09-21T16:22:04;2.97;;;0.77;;
66429;SDS011;53242;51.694;10.006;2022-09-21T16:24:27;3.53;;;0.55;;
66429;SDS011;53242;51.694;10.006;2022-09-21T16:29:23;3.92;;;0.55;;
66429;SDS011;53242;51.694;10.006;2022-09-21T16:31:48;4.95;;;0.77;;
66429;SDS011;53242;51.694;10.006;2022-09-21T16:34:18;3.35;;;0.90;;
66429;SDS011;53242;51.694;10.006;2022-09-21T16:36:53;3.25;;;0.70;;
66429;SDS011;53242;51.694;10.006;2022-09-21T16:39:16;3.17;;;0.60;;
66429;SDS011;53242;51.694;10.006;2022-09-21T16:41:41;3.00;;;0.52;;
66429;SDS011;53242;51.694;10.006;2022-09-21T16:44:11;1.85;;;0.63;;
66429;SDS011;53242;51.694;10.006;2022-09-21T16:46:41;3.05;;;1.23;;
66429;SDS011;53242;51.694;10.006;2022-09-21T16:49:07;3.50;;;1.00;;
66429;SDS011;53242;51.694;10.006;2022-09-21T16:51:36;1.95;;;0.60;;
66429;SDS011;53242;51.694;10.006;2022-09-21T16:53:58;3.20;;;0.73;;
66429;SDS011;53242;51.694;10.006;2022-09-21T16:56:21;2.83;;;0.90;;
66429;SDS011;53242;51.694;10.006;2022-09-21T16:58:44;2.30;;;0.90;;
66429;SDS011;53242;51.694;10.006;2022-09-21T17:01:07;2.20;;;1.10;;
66429;SDS011;53242;51.694;10.006;2022-09-21T17:03:33;5.60;;;0.90;;
66429;SDS011;53242;51.694;10.006;2022-09-21T17:05:56;4.05;;;0.90;;
66429;SDS011;53242;51.694;10.006;2022-09-21T17:08:18;2.15;;;0.70;;
66429;SDS011;53242;51.694;10.006;2022-09-21T17:10:42;2.58;;;0.65;;
66429;SDS011;53242;51.694;10.006;2022-09-21T17:13:06;1.58;;;0.60;;
66429;SDS011;53242;51.694;10.006;2022-09-21T17:15:29;3.22;;;0.80;;
66429;SDS011;53242;51.694;10.006;2022-09-21T17:17:52;1.20;;;0.55;;
66429;SDS011;53242;51.694;10.006;2022-09-21T17:20:34;3.63;;;0.93;;
66429;SDS011;53242;51.694;10.006;2022-09-21T17:22:58;3.42;;;0.95;;
66429;SDS011;53242;51.694;10.006;2022-09-21T17:25:22;4.60;;;0.90;;
66429;SDS011;53242;51.694;10.006;2022-09-21T17:27:45;5.00;;;1.00;;
66429;SDS011;53242;51.694;10.006;2022-09-21T17:30:10;3.33;;;0.88;;
66429;SDS011;53242;51.694;10.006;2022-09-21T17:32:34;1.88;;;0.77;;
66429;SDS011;53242;51.694;10.006;2022-09-21T17:34:58;3.13;;;0.90;;
66429;SDS011;53242;51.694;10.006;2022-09-21T17:37:33;3.25;;;0.80;;
66429;SDS011;53242;51.694;10.006;2022-09-21T17:39:56;2.25;;;0.68;;
66429;SDS011;53242;51.694;10.006;2022-09-21T17:42:20;1.30;;;0.60;;